Time;durP1;ratioP1;P1;durP2;ratioP2;P2;SDS_P1;SDS_P2;PMS_P1;PMS_P2;Temp;Humidity;BMP_temperature;BMP_pressure;BME280_temperature;BME280_humidity;BME280_pressure;Samples;Min_cycle;Max_cycle;Signal;HPM_P1;HPM_P2
2022/12/08 00:01:26;;;;;;;31.27;11.90;;;2.30;99.90;;;;;;5112556;28;20084;-75
2022/12/08 00:03:52;;;;;;;29.13;12.77;;;2.30;99.90;;;;;;5112402;28;20655;-75
2022/12/08 00:09:33;;;;;;;25.73;11.83;;;2.30;99.90;;;;;;5113462;28;20038;-75
2022/12/08 00:12:08;;;;;;;26.30;11.87;;;2.30;99.90;;;;;;5112645;28;20224;-75
2022/12/08 00:14:36;;;;;;;28.47;11.63;;;2.40;99.90;;;;;;5113446;28;20023;-79
2022/12/08 00:17:04;;;;;;;31.87;12.30;;;2.40;99.90;;;;;;5113545;28;20142;-79
2022/12/08 00:19:30;;;;;;;28.53;12.20;;;2.40;99.90;;;;;;5112845;28;20464;-79
2022/12/08 00:21:56;;;;;;;26.63;11.83;;;2.40;99.90;;;;;;5114278;28;20081;-79
2022/12/08 00:24:24;;;;;;;25.00;10.87;;;2.40;99.90;;;;;;5113098;28;20031;-78
2022/12/08 00:26:50;;;;;;;27.27;11.43;;;2.40;99.90;;;;;;5114373;28;20032;-79
2022/12/08 00:29:15;;;;;;;26.77;11.47;;;2.40;99.90;;;;;;5112884;28;20080;-77
2022/12/08 00:31:41;;;;;;;28.67;11.63;;;2.40;99.90;;;;;;5113584;28;20046;-78
2022/12/08 00:34:07;;;;;;;27.43;10.83;;;2.40;99.90;;;;;;5113689;28;20114;-78
2022/12/08 00:36:33;;;;;;;23.73;10.10;;;2.40;99.90;;;;;;5112696;28;20028;-79
2022/12/08 00:38:59;;;;;;;23.10;10.90;;;2.40;99.90;;;;;;5114085;28;20016;-78
2022/12/08 00:44:13;;;;;;;23.03;10.33;;;2.40;99.90;;;;;;5113956;28;20038;-79
2022/12/08 00:46:39;;;;;;;25.50;10.60;;;2.40;99.90;;;;;;5113328;28;20032;-78
2022/12/08 00:49:05;;;;;;;30.57;10.77;;;2.40;99.90;;;;;;5112789;28;20383;-79
2022/12/08 00:51:32;;;;;;;21.40;9.57;;;2.40;99.90;;;;;;5112105;28;20122;-78
2022/12/08 00:53:57;;;;;;;21.20;9.57;;;2.40;99.90;;;;;;5112847;28;20020;-78
2022/12/08 00:56:23;;;;;;;21.73;10.13;;;2.40;99.90;;;;;;5112963;28;20080;-79
2022/12/08 00:58:49;;;;;;;27.57;10.43;;;2.30;99.90;;;;;;5112857;28;20027;-80
2022/12/08 01:01:15;;;;;;;23.00;9.53;;;2.30;99.90;;;;;;5114185;28;20031;-80
2022/12/08 01:03:41;;;;;;;22.70;9.30;;;2.30;99.90;;;;;;5112798;28;20034;-80
2022/12/08 01:06:08;;;;;;;25.90;10.20;;;2.30;99.90;;;;;;5113069;28;20073;-80
2022/12/08 01:08:36;;;;;;;21.73;9.80;;;2.30;99.90;;;;;;5113297;28;20093;-78
2022/12/08 01:11:07;;;;;;;22.93;9.87;;;2.30;99.90;;;;;;5112839;28;20464;-78
2022/12/08 01:13:33;;;;;;;20.85;8.82;;;2.30;99.90;;;;;;5112127;28;20051;-78
2022/12/08 01:15:59;;;;;;;23.00;9.63;;;2.30;99.90;;;;;;5113067;28;20083;-79
2022/12/08 01:18:26;;;;;;;26.43;10.10;;;2.30;99.90;;;;;;5112667;28;20514;-78
2022/12/08 01:20:51;;;;;;;21.90;9.07;;;2.20;99.90;;;;;;5112573;28;20027;-78
2022/12/08 01:23:17;;;;;;;20.37;8.93;;;2.30;99.90;;;;;;5114190;28;20034;-79
2022/12/08 01:25:43;;;;;;;19.57;9.10;;;2.20;99.90;;;;;;5111983;28;20023;-79
2022/12/08 01:28:08;;;;;;;22.83;9.53;;;2.20;99.90;;;;;;5113809;28;20027;-78
2022/12/08 01:30:34;;;;;;;21.37;9.00;;;2.20;99.90;;;;;;5112134;28;20028;-79
2022/12/08 01:33:00;;;;;;;19.93;9.10;;;2.20;99.90;;;;;;5112723;28;20456;-79
2022/12/08 01:35:26;;;;;;;22.90;9.47;;;2.20;99.90;;;;;;5112140;28;20024;-78
2022/12/08 01:37:51;;;;;;;25.57;10.27;;;2.20;99.90;;;;;;5112888;28;20024;-79
2022/12/08 01:40:17;;;;;;;21.57;9.53;;;2.20;99.90;;;;;;5112927;28;20023;-79
2022/12/08 01:42:42;;;;;;;22.87;10.03;;;2.10;99.90;;;;;;5112171;28;20468;-79
2022/12/08 01:45:24;;;;;;;21.63;9.37;;;2.10;99.90;;;;;;5112493;28;20038;-78
2022/12/08 01:47:55;;;;;;;24.70;9.73;;;2.10;99.90;;;;;;5113187;28;20037;-78
2022/12/08 01:50:21;;;;;;;21.03;9.03;;;2.10;99.90;;;;;;5112746;28;20480;-78
2022/12/08 01:52:52;;;;;;;22.07;9.83;;;2.10;99.90;;;;;;5111823;28;20046;-78
2022/12/08 01:55:32;;;;;;;23.70;9.67;;;2.20;99.90;;;;;;5112729;28;20031;-81
2022/12/08 01:58:04;;;;;;;21.13;9.20;;;2.20;99.90;;;;;;5112643;28;20372;-80
2022/12/08 02:00:30;;;;;;;25.50;9.77;;;2.10;99.90;;;;;;5112242;28;20032;-80
2022/12/08 02:03:08;;;;;;;20.73;8.93;;;2.10;99.90;;;;;;5112735;28;20077;-81
2022/12/08 02:05:36;;;;;;;21.53;9.27;;;2.10;99.90;;;;;;5112181;28;20027;-81
2022/12/08 02:08:08;;;;;;;25.10;10.47;;;2.10;99.90;;;;;;5113830;28;20051;-79
2022/12/08 02:10:37;;;;;;;20.52;9.55;;;2.10;99.90;;;;;;5111962;28;20094;-80
2022/12/08 02:13:05;;;;;;;21.33;9.53;;;2.20;99.90;;;;;;5112714;28;20027;-78
2022/12/08 02:16:01;;;;;;;25.40;10.37;;;2.10;99.90;;;;;;5111545;28;20048;-78
2022/12/08 02:18:29;;;;;;;22.27;9.77;;;2.10;99.90;;;;;;5113677;28;20037;-79
2022/12/08 02:21:13;;;;;;;20.80;9.20;;;2.10;99.90;;;;;;5112323;28;20020;-78
2022/12/08 02:23:56;;;;;;;22.93;9.60;;;2.10;99.90;;;;;;5111952;28;20516;-78
2022/12/08 02:26:46;;;;;;;22.00;9.23;;;2.10;99.90;;;;;;5113398;28;20069;-79
2022/12/08 02:29:30;;;;;;;20.93;9.30;;;2.10;99.90;;;;;;5117405;28;20102;-79
2022/12/08 02:32:17;;;;;;;23.67;9.07;;;2.10;99.90;;;;;;5117183;28;20024;-79
2022/12/08 02:35:13;;;;;;;22.77;9.33;;;2.10;99.90;;;;;;5115453;28;20046;-79
2022/12/08 02:37:48;;;;;;;23.20;10.10;;;2.10;99.90;;;;;;5115814;28;20016;-79
2022/12/08 02:40:38;;;;;;;18.40;8.43;;;2.10;99.90;;;;;;5116416;28;20024;-79
2022/12/08 02:43:26;;;;;;;22.23;9.00;;;2.10;99.90;;;;;;5117019;28;20070;-79
2022/12/08 02:46:00;;;;;;;22.50;9.27;;;2.10;99.90;;;;;;5102233;28;20036;-79
2022/12/08 02:48:31;;;;;;;18.87;8.70;;;2.10;99.90;;;;;;5095510;28;20052;-79
2022/12/08 02:50:57;;;;;;;15.43;6.73;;;2.10;99.90;;;;;;5095433;28;20028;-79
2022/12/08 02:53:23;;;;;;;23.03;8.70;;;2.10;99.90;;;;;;5095384;28;20329;-79
2022/12/08 02:56:14;;;;;;;18.53;8.80;;;2.00;99.90;;;;;;5095786;28;20028;-79
2022/12/08 02:58:47;;;;;;;21.37;8.67;;;2.00;99.90;;;;;;5095886;28;20031;-79
2022/12/08 03:01:31;;;;;;;20.30;9.00;;;2.00;99.90;;;;;;5096260;28;20461;-79
2022/12/08 03:04:01;;;;;;;21.60;8.60;;;1.90;99.90;;;;;;5096103;28;20020;-77
2022/12/08 03:06:42;;;;;;;22.00;9.37;;;1.90;99.90;;;;;;5096093;28;20043;-77
2022/12/08 03:09:19;;;;;;;18.63;8.33;;;2.00;99.90;;;;;;5094729;28;20024;-77
2022/12/08 03:11:50;;;;;;;20.10;8.63;;;2.00;99.90;;;;;;5094286;28;20031;-77
2022/12/08 03:14:17;;;;;;;25.23;9.38;;;2.00;99.90;;;;;;5096008;28;20032;-77
2022/12/08 03:16:47;;;;;;;23.47;9.60;;;1.90;99.90;;;;;;5095491;28;20490;-77
2022/12/08 03:19:17;;;;;;;19.90;8.73;;;1.90;99.90;;;;;;5094803;28;20024;-78
2022/12/08 03:21:44;;;;;;;16.47;8.20;;;2.00;99.90;;;;;;5094116;28;20537;-77
2022/12/08 03:24:11;;;;;;;20.60;7.80;;;2.00;99.90;;;;;;5094604;28;20043;-77
2022/12/08 03:26:56;;;;;;;19.37;9.03;;;2.00;99.90;;;;;;5093831;28;20035;-78
2022/12/08 03:29:22;;;;;;;19.33;8.27;;;2.00;99.90;;;;;;5094645;28;20380;-77
2022/12/08 03:31:58;;;;;;;18.30;8.37;;;2.00;99.90;;;;;;5093932;28;20035;-77
2022/12/08 03:34:27;;;;;;;21.50;8.90;;;2.00;99.90;;;;;;5095587;28;20096;-78
2022/12/08 03:36:53;;;;;;;22.00;8.43;;;2.00;99.90;;;;;;5076953;28;20308;-78
2022/12/08 03:39:18;;;;;;;19.37;8.50;;;2.00;99.90;;;;;;5095279;28;20020;-78
2022/12/08 03:41:45;;;;;;;22.73;9.30;;;2.00;99.90;;;;;;5094808;28;20169;-78
2022/12/08 03:44:11;;;;;;;23.37;8.07;;;2.00;99.90;;;;;;5094132;28;20028;-78
2022/12/08 03:46:37;;;;;;;24.03;9.07;;;2.00;99.90;;;;;;5094793;28;20040;-78
2022/12/08 03:49:03;;;;;;;19.37;7.43;;;2.10;99.90;;;;;;5095349;28;20028;-77
2022/12/08 03:51:29;;;;;;;20.50;8.20;;;2.10;99.90;;;;;;5095294;28;20032;-78
2022/12/08 03:53:54;;;;;;;21.37;8.73;;;2.10;99.90;;;;;;5093305;28;20027;-78
2022/12/08 03:56:25;;;;;;;20.20;8.90;;;2.10;99.90;;;;;;5095053;28;20024;-79
2022/12/08 03:58:51;;;;;;;24.63;8.27;;;2.20;99.90;;;;;;5093417;28;20028;-78
2022/12/08 04:01:17;;;;;;;23.10;9.30;;;2.20;99.90;;;;;;5095012;28;20039;-78
2022/12/08 04:03:43;;;;;;;18.57;8.17;;;2.20;99.90;;;;;;5093265;28;20016;-79
2022/12/08 04:06:09;;;;;;;20.07;8.27;;;2.20;99.90;;;;;;5094258;28;20382;-79
2022/12/08 04:08:34;;;;;;;20.23;7.93;;;2.20;99.90;;;;;;5095087;28;20028;-78
2022/12/08 04:11:00;;;;;;;20.80;9.47;;;2.20;99.90;;;;;;5093680;28;20074;-77
2022/12/08 04:13:26;;;;;;;21.03;8.73;;;2.20;99.90;;;;;;5093536;28;20035;-77
2022/12/08 04:15:52;;;;;;;19.37;8.37;;;2.20;99.90;;;;;;5093955;28;20477;-77
2022/12/08 04:18:17;;;;;;;18.17;8.00;;;2.20;99.90;;;;;;5093680;28;20039;-77
2022/12/08 04:20:44;;;;;;;21.53;8.73;;;2.20;99.90;;;;;;5093748;28;20039;-77
2022/12/08 04:23:11;;;;;;;20.57;7.90;;;2.20;99.90;;;;;;5093415;28;20089;-77
2022/12/08 04:25:37;;;;;;;22.60;8.87;;;2.20;99.90;;;;;;5092989;28;20117;-77
2022/12/08 04:28:04;;;;;;;20.73;8.57;;;2.20;99.90;;;;;;5094395;28;20060;-77
2022/12/08 04:30:29;;;;;;;20.07;8.90;;;2.20;99.90;;;;;;5094309;28;20032;-77
2022/12/08 04:32:55;;;;;;;20.43;8.70;;;2.20;99.90;;;;;;5093725;28;20035;-77
2022/12/08 04:35:21;;;;;;;22.63;9.23;;;2.20;99.90;;;;;;5093320;28;20046;-77
2022/12/08 04:37:47;;;;;;;22.07;8.90;;;2.20;99.90;;;;;;5092536;28;20024;-77
2022/12/08 04:40:13;;;;;;;22.10;8.70;;;2.30;99.90;;;;;;5093015;28;20024;-78
2022/12/08 04:42:38;;;;;;;18.03;8.03;;;2.30;99.90;;;;;;5093603;28;20469;-77
2022/12/08 04:45:05;;;;;;;20.50;8.80;;;2.30;99.90;;;;;;5092915;28;20035;-78
2022/12/08 04:47:31;;;;;;;14.90;7.17;;;2.30;99.90;;;;;;5094293;28;20043;-78
2022/12/08 04:49:57;;;;;;;17.00;8.00;;;2.40;99.90;;;;;;5091765;28;20182;-78
2022/12/08 04:52:22;;;;;;;19.97;8.30;;;2.40;99.90;;;;;;5092593;28;20032;-78
2022/12/08 04:54:48;;;;;;;22.80;8.60;;;2.40;99.90;;;;;;5092084;28;20024;-78
2022/12/08 04:57:14;;;;;;;18.40;7.77;;;2.40;99.90;;;;;;5092913;28;20527;-78
2022/12/08 04:59:40;;;;;;;19.00;8.10;;;2.40;99.90;;;;;;5091992;28;20219;-78
2022/12/08 05:02:05;;;;;;;17.30;8.07;;;2.40;99.90;;;;;;5092621;28;20124;-78
2022/12/08 05:04:31;;;;;;;17.70;7.10;;;2.40;99.90;;;;;;5094080;28;20020;-78
2022/12/08 05:06:57;;;;;;;21.73;9.03;;;2.40;99.90;;;;;;5093289;28;20035;-77
2022/12/08 05:09:22;;;;;;;19.73;9.07;;;2.40;99.90;;;;;;5093772;28;20027;-78
2022/12/08 05:11:48;;;;;;;20.63;8.87;;;2.40;99.90;;;;;;5093218;28;20024;-77
2022/12/08 05:14:14;;;;;;;17.57;7.83;;;2.40;99.90;;;;;;5093584;28;20066;-77
2022/12/08 05:16:41;;;;;;;20.60;8.00;;;2.40;99.90;;;;;;5088878;28;20087;-77
2022/12/08 05:19:07;;;;;;;21.17;8.47;;;2.40;99.90;;;;;;5113626;27;20065;-77
2022/12/08 05:21:32;;;;;;;22.40;8.03;;;2.50;99.90;;;;;;5106338;28;20036;-77
2022/12/08 05:23:58;;;;;;;21.43;8.57;;;2.50;99.90;;;;;;5111540;28;20340;-77
2022/12/08 05:26:24;;;;;;;18.17;7.80;;;2.50;99.90;;;;;;5111461;28;20024;-77
2022/12/08 05:28:49;;;;;;;23.97;9.43;;;2.50;99.90;;;;;;5092816;28;20533;-77
2022/12/08 05:31:16;;;;;;;20.07;7.73;;;2.50;99.90;;;;;;5086006;28;20023;-77
2022/12/08 05:33:42;;;;;;;21.57;8.80;;;2.50;99.90;;;;;;5111768;28;20449;-76
2022/12/08 05:36:10;;;;;;;19.40;8.57;;;2.40;99.90;;;;;;5110200;28;20428;-77
2022/12/08 05:38:36;;;;;;;20.33;8.57;;;2.50;99.90;;;;;;5099090;28;20484;-78
2022/12/08 05:41:02;;;;;;;21.03;8.83;;;2.50;99.90;;;;;;5106880;28;20028;-77
2022/12/08 05:43:27;;;;;;;24.57;9.10;;;2.50;99.90;;;;;;5108710;28;20020;-77
2022/12/08 05:45:53;;;;;;;21.73;9.10;;;2.50;99.90;;;;;;5099390;28;20089;-78
2022/12/08 05:48:19;;;;;;;20.00;8.50;;;2.50;99.90;;;;;;5112261;28;20540;-78
2022/12/08 05:50:46;;;;;;;22.67;9.13;;;2.50;99.90;;;;;;5109940;28;20404;-77
2022/12/08 05:53:12;;;;;;;21.77;9.83;;;2.50;99.90;;;;;;5096404;28;20066;-77
2022/12/08 05:55:38;;;;;;;23.77;9.73;;;2.50;99.90;;;;;;5107415;28;20028;-77
2022/12/08 05:58:03;;;;;;;24.43;9.23;;;2.50;99.90;;;;;;5099326;28;20353;-77
2022/12/08 06:00:29;;;;;;;19.87;8.97;;;2.50;99.90;;;;;;5102074;28;20043;-78
2022/12/08 06:02:55;;;;;;;17.57;8.80;;;2.50;99.90;;;;;;5110631;28;20389;-77
2022/12/08 06:05:20;;;;;;;21.73;9.23;;;2.50;99.90;;;;;;5098806;28;20031;-77
2022/12/08 06:07:46;;;;;;;25.10;10.03;;;2.50;99.90;;;;;;5109466;28;20042;-78
2022/12/08 06:10:12;;;;;;;22.40;9.60;;;2.50;99.90;;;;;;5105082;28;20023;-77
2022/12/08 06:12:38;;;;;;;20.60;9.63;;;2.40;99.90;;;;;;5102911;28;20089;-77
2022/12/08 06:15:03;;;;;;;21.30;9.73;;;2.50;99.90;;;;;;5112638;28;20039;-77
2022/12/08 06:17:29;;;;;;;20.20;9.03;;;2.50;99.90;;;;;;5114936;28;20442;-77
2022/12/08 06:19:55;;;;;;;23.93;9.63;;;2.50;99.90;;;;;;5115277;28;20019;-78
2022/12/08 06:22:20;;;;;;;18.00;9.00;;;2.50;99.90;;;;;;5104835;28;20089;-77
2022/12/08 06:24:46;;;;;;;19.47;9.23;;;2.50;99.90;;;;;;5108639;28;20026;-77
2022/12/08 06:27:11;;;;;;;25.93;10.13;;;2.50;99.90;;;;;;5111373;28;20023;-77
2022/12/08 06:29:37;;;;;;;21.53;9.97;;;2.50;99.90;;;;;;5096807;28;20461;-77
2022/12/08 06:32:02;;;;;;;22.83;10.47;;;2.50;99.90;;;;;;5107759;28;20028;-77
2022/12/08 06:34:28;;;;;;;21.53;9.97;;;2.50;99.90;;;;;;5107137;28;20047;-77
2022/12/08 06:36:53;;;;;;;20.77;9.27;;;2.50;99.90;;;;;;5115960;28;20020;-77
2022/12/08 06:39:19;;;;;;;26.83;10.33;;;2.50;99.90;;;;;;5098280;28;20461;-77
2022/12/08 06:44:29;;;;;;;21.77;8.60;;;2.50;99.90;;;;;;5107946;28;20042;-77
2022/12/08 06:46:54;;;;;;;23.37;9.37;;;2.50;99.90;;;;;;5115331;28;20110;-78
2022/12/08 06:49:20;;;;;;;25.40;10.47;;;2.50;99.90;;;;;;5113293;28;20530;-78
2022/12/08 06:51:45;;;;;;;26.37;10.10;;;2.50;99.90;;;;;;5100899;28;20030;-78
2022/12/08 06:54:11;;;;;;;23.10;9.73;;;2.50;99.90;;;;;;5106064;28;20032;-78
2022/12/08 06:56:37;;;;;;;21.00;9.60;;;2.60;99.90;;;;;;5107900;28;20026;-79
2022/12/08 06:59:03;;;;;;;20.70;9.57;;;2.60;99.90;;;;;;5099691;28;20077;-79
2022/12/08 07:01:28;;;;;;;24.70;11.17;;;2.60;99.90;;;;;;5111418;28;20035;-78
2022/12/08 07:03:54;;;;;;;24.70;11.00;;;2.70;99.90;;;;;;5101281;28;20020;-78
2022/12/08 07:06:22;;;;;;;22.97;9.90;;;2.60;99.90;;;;;;5104517;28;20649;-79
2022/12/08 07:08:48;;;;;;;20.23;9.80;;;2.60;99.90;;;;;;5108577;28;20039;-78
2022/12/08 07:11:13;;;;;;;25.67;10.87;;;2.60;99.90;;;;;;5097803;28;20028;-78
2022/12/08 07:13:39;;;;;;;20.53;10.50;;;2.60;99.90;;;;;;5109793;28;20039;-79
2022/12/08 07:16:06;;;;;;;22.67;10.00;;;2.60;99.90;;;;;;5101810;28;20078;-78
2022/12/08 07:18:32;;;;;;;25.10;10.40;;;2.50;99.90;;;;;;5114896;28;20024;-78
2022/12/08 07:21:06;;;;;;;24.70;10.23;;;2.50;99.90;;;;;;5114243;28;20045;-78
2022/12/08 07:23:32;;;;;;;21.60;10.10;;;2.50;99.90;;;;;;5097967;28;20463;-78
2022/12/08 07:26:02;;;;;;;22.47;10.97;;;2.50;99.90;;;;;;5110587;28;20107;-78
2022/12/08 07:28:35;;;;;;;25.63;11.27;;;2.50;99.90;;;;;;5103853;28;20112;-78
2022/12/08 07:31:01;;;;;;;25.37;10.63;;;2.50;99.90;;;;;;5111170;28;20028;-79
2022/12/08 07:33:27;;;;;;;25.67;10.23;;;2.50;99.90;;;;;;5112127;28;20411;-79
2022/12/08 07:35:57;;;;;;;24.43;10.90;;;2.60;99.90;;;;;;5100015;28;20376;-78
2022/12/08 07:38:23;;;;;;;24.87;10.63;;;2.60;99.90;;;;;;5104573;28;20048;-78
2022/12/08 07:40:49;;;;;;;20.67;10.10;;;2.60;99.90;;;;;;5107919;28;20392;-78
2022/12/08 07:43:15;;;;;;;26.53;10.50;;;2.60;99.90;;;;;;5097024;28;20040;-79
2022/12/08 07:45:40;;;;;;;22.93;10.03;;;2.60;99.90;;;;;;5112864;28;20591;-78
2022/12/08 07:48:06;;;;;;;25.77;10.37;;;2.60;99.90;;;;;;5104669;28;20031;-79
2022/12/08 07:50:32;;;;;;;22.53;10.27;;;2.60;99.90;;;;;;5099503;28;20474;-78
2022/12/08 07:52:58;;;;;;;23.20;9.97;;;2.60;99.90;;;;;;5100657;28;20461;-78
2022/12/08 07:55:23;;;;;;;31.53;11.00;;;2.60;99.90;;;;;;5114251;28;20106;-79
2022/12/08 07:57:50;;;;;;;23.53;10.60;;;2.70;99.90;;;;;;5106429;28;20465;-78
2022/12/08 08:00:17;;;;;;;22.93;10.33;;;2.70;99.90;;;;;;5107969;28;20024;-78
2022/12/08 08:02:42;;;;;;;26.20;11.07;;;2.60;99.90;;;;;;5105410;28;20067;-79
2022/12/08 08:05:09;;;;;;;26.33;11.13;;;2.60;99.90;;;;;;5098735;28;20043;-80
2022/12/08 08:07:35;;;;;;;23.90;10.30;;;2.60;99.90;;;;;;5111497;28;20055;-79
2022/12/08 08:10:04;;;;;;;23.40;10.67;;;2.60;99.90;;;;;;5095013;28;20074;-79
2022/12/08 08:12:29;;;;;;;24.37;10.37;;;2.70;99.90;;;;;;5103651;28;20027;-78
2022/12/08 08:14:55;;;;;;;24.53;10.90;;;2.70;99.90;;;;;;5113055;28;20478;-78
2022/12/08 08:17:20;;;;;;;23.20;10.07;;;2.70;99.90;;;;;;5113886;28;20098;-79
2022/12/08 08:19:46;;;;;;;23.80;11.30;;;2.70;99.90;;;;;;5097219;28;20444;-79
2022/12/08 08:22:12;;;;;;;22.53;10.37;;;2.70;99.90;;;;;;5106512;28;20082;-79
2022/12/08 08:24:37;;;;;;;27.47;11.40;;;2.70;99.90;;;;;;5104449;28;20024;-79
2022/12/08 08:27:03;;;;;;;25.97;10.70;;;2.70;99.90;;;;;;5099394;28;20023;-79
2022/12/08 08:29:29;;;;;;;21.40;10.17;;;2.70;99.90;;;;;;5109841;28;20024;-79
2022/12/08 08:31:54;;;;;;;24.20;10.50;;;2.70;99.90;;;;;;5096940;28;20051;-80
2022/12/08 08:34:20;;;;;;;24.73;10.73;;;2.80;99.90;;;;;;5105177;28;20525;-79
2022/12/08 08:36:46;;;;;;;20.83;9.60;;;2.80;99.90;;;;;;5103865;28;20031;-78
2022/12/08 08:39:12;;;;;;;26.17;11.53;;;2.80;99.90;;;;;;5097215;28;20028;-79
2022/12/08 08:41:38;;;;;;;22.47;10.67;;;2.80;99.90;;;;;;5111773;28;20067;-79
2022/12/08 08:44:04;;;;;;;22.43;10.13;;;2.70;99.90;;;;;;5111770;28;20047;-78
2022/12/08 08:46:29;;;;;;;20.90;10.53;;;2.70;99.90;;;;;;5113106;28;20415;-78
2022/12/08 08:48:56;;;;;;;22.53;10.53;;;2.70;99.90;;;;;;5112073;28;20068;-79
2022/12/08 08:51:22;;;;;;;24.10;9.93;;;2.70;99.90;;;;;;5107151;28;20096;-78
2022/12/08 08:53:48;;;;;;;25.00;10.97;;;2.70;99.90;;;;;;5111438;28;20027;-78
2022/12/08 08:56:18;;;;;;;25.80;10.57;;;2.70;99.90;;;;;;5112041;28;20164;-78
2022/12/08 08:58:44;;;;;;;24.63;10.07;;;2.70;99.90;;;;;;5113693;28;20023;-78
2022/12/08 09:01:15;;;;;;;23.00;10.37;;;2.70;99.90;;;;;;5111442;28;20027;-79
2022/12/08 09:03:40;;;;;;;24.20;10.87;;;2.80;99.90;;;;;;5111989;28;20157;-78
2022/12/08 09:06:06;;;;;;;23.67;10.33;;;2.80;99.90;;;;;;5112597;28;20309;-78
2022/12/08 09:08:31;;;;;;;22.70;10.43;;;2.80;99.90;;;;;;5112197;28;20035;-79
2022/12/08 09:10:57;;;;;;;22.40;10.80;;;2.80;99.90;;;;;;5106238;28;20027;-77
2022/12/08 09:13:23;;;;;;;25.83;11.30;;;2.90;99.90;;;;;;5111918;28;20059;-78
2022/12/08 09:15:48;;;;;;;23.60;10.20;;;3.00;99.90;;;;;;5108067;28;20042;-79
2022/12/08 09:18:14;;;;;;;21.63;10.73;;;3.00;99.90;;;;;;5111166;28;20085;-80
2022/12/08 09:20:39;;;;;;;25.87;12.00;;;3.10;99.90;;;;;;5101531;28;20445;-79
2022/12/08 09:23:05;;;;;;;26.27;10.77;;;3.10;99.90;;;;;;5105856;28;20545;-79
2022/12/08 09:25:30;;;;;;;26.70;11.10;;;3.20;99.90;;;;;;5095157;28;20028;-79
2022/12/08 09:27:56;;;;;;;26.17;11.60;;;3.20;99.90;;;;;;5106863;28;20115;-78
2022/12/08 09:30:22;;;;;;;25.43;10.53;;;3.20;99.90;;;;;;5099911;28;20464;-80
2022/12/08 09:32:47;;;;;;;26.67;11.70;;;3.30;99.90;;;;;;5101192;28;20055;-78
2022/12/08 09:35:13;;;;;;;22.67;10.77;;;3.30;99.90;;;;;;5106908;28;20035;-78
2022/12/08 09:37:38;;;;;;;26.57;11.80;;;3.30;99.90;;;;;;5108952;28;20074;-81
2022/12/08 09:40:06;;;;;;;22.90;10.33;;;3.30;99.90;;;;;;5102119;28;20023;-76
2022/12/08 09:42:50;;;;;;;24.97;10.70;;;3.30;99.90;;;;;;5107928;28;20067;-75
2022/12/08 09:45:16;;;;;;;24.33;11.00;;;3.30;99.90;;;;;;5110474;28;20372;-76
2022/12/08 09:47:47;;;;;;;25.53;11.37;;;3.30;99.90;;;;;;5109806;28;20476;-77
2022/12/08 09:50:51;;;;;;;25.87;11.23;;;3.40;99.90;;;;;;5108494;28;20457;-77
2022/12/08 09:53:31;;;;;;;26.17;11.57;;;3.40;99.90;;;;;;5106695;28;20034;-76
2022/12/08 09:56:09;;;;;;;27.67;11.20;;;3.40;99.90;;;;;;5103084;28;20052;-76
2022/12/08 09:58:51;;;;;;;25.73;11.33;;;3.40;99.90;;;;;;5106547;28;20020;-76
2022/12/08 10:01:21;;;;;;;26.02;11.35;;;3.40;99.90;;;;;;5107758;28;20085;-77
2022/12/08 10:03:48;;;;;;;28.53;12.33;;;3.50;99.90;;;;;;5105098;28;20032;-80
2022/12/08 10:06:40;;;;;;;24.27;12.23;;;3.50;99.90;;;;;;5105231;28;20028;-80
2022/12/08 10:09:15;;;;;;;28.43;11.47;;;3.60;99.90;;;;;;5103375;28;20461;-80
2022/12/08 10:12:15;;;;;;;27.70;12.07;;;3.60;99.90;;;;;;5109562;28;20035;-80
2022/12/08 10:14:47;;;;;;;28.43;11.57;;;3.60;99.90;;;;;;5013327;28;20039;-80
2022/12/08 10:17:20;;;;;;;25.03;11.47;;;3.70;99.90;;;;;;5090827;28;20078;-80
2022/12/08 10:19:47;;;;;;;26.13;11.83;;;3.70;99.90;;;;;;5107535;28;20492;-81
2022/12/08 10:22:22;;;;;;;29.40;12.20;;;3.70;99.90;;;;;;5112257;28;20476;-80
2022/12/08 10:25:17;;;;;;;25.77;10.30;;;3.80;99.90;;;;;;5105356;28;20052;-80
2022/12/08 10:27:45;;;;;;;23.37;9.83;;;3.90;99.90;;;;;;5099345;28;20157;-77
2022/12/08 10:30:16;;;;;;;21.60;9.17;;;3.90;99.90;;;;;;5095801;28;20040;-78
2022/12/08 10:32:45;;;;;;;23.03;9.13;;;3.80;99.90;;;;;;5108015;28;20020;-79
2022/12/08 10:35:13;;;;;;;21.10;10.23;;;3.80;99.90;;;;;;5109299;28;20058;-81
2022/12/08 10:37:39;;;;;;;20.80;9.17;;;3.80;99.90;;;;;;5108985;28;20020;-80
2022/12/08 10:40:12;;;;;;;23.67;9.93;;;3.90;99.90;;;;;;5101753;28;20027;-77
2022/12/08 10:42:53;;;;;;;20.37;8.97;;;3.90;99.90;;;;;;5108811;28;20084;-76
2022/12/08 10:45:37;;;;;;;22.40;9.10;;;3.90;99.90;;;;;;5107300;28;20111;-76
2022/12/08 10:48:12;;;;;;;19.97;8.80;;;4.10;99.90;;;;;;5104136;28;20032;-76
2022/12/08 10:50:51;;;;;;;19.03;8.57;;;4.10;99.90;;;;;;5108862;28;20081;-78
2022/12/08 10:53:24;;;;;;;22.63;8.87;;;4.20;99.90;;;;;;5109300;28;20108;-76
2022/12/08 10:56:05;;;;;;;19.20;8.63;;;4.20;99.90;;;;;;5105865;28;20027;-79
2022/12/08 10:58:39;;;;;;;19.93;8.97;;;4.30;99.90;;;;;;5103624;28;20031;-78
2022/12/08 11:01:12;;;;;;;22.47;8.80;;;4.30;99.90;;;;;;5103636;28;20023;-74
2022/12/08 11:03:44;;;;;;;18.70;7.97;;;4.30;99.90;;;;;;5099579;28;20028;-74
2022/12/08 11:06:29;;;;;;;17.47;8.13;;;4.40;99.90;;;;;;5098276;28;20476;-74
2022/12/08 11:09:01;;;;;;;17.50;8.00;;;4.30;99.90;;;;;;5099331;28;20030;-74
2022/12/08 11:12:05;;;;;;;14.60;6.32;;;4.30;99.90;;;;;;5112925;28;20031;-74
2022/12/08 11:14:32;;;;;;;17.13;6.50;;;4.30;99.90;;;;;;5080821;28;20036;-74
2022/12/08 11:17:14;;;;;;;13.60;6.57;;;4.30;99.90;;;;;;5099389;28;20138;-75
2022/12/08 11:19:45;;;;;;;12.00;6.50;;;4.30;99.90;;;;;;5109785;28;20028;-75
2022/12/08 11:22:22;;;;;;;16.63;7.33;;;4.40;99.90;;;;;;5106503;28;20106;-77
2022/12/08 11:25:12;;;;;;;16.87;7.27;;;4.40;99.90;;;;;;5109522;28;20023;-80
2022/12/08 11:27:40;;;;;;;17.53;8.17;;;4.50;99.90;;;;;;5099919;28;20028;-80
2022/12/08 11:30:29;;;;;;;16.37;7.80;;;4.50;99.90;;;;;;5113539;28;20374;-78
2022/12/08 11:33:16;;;;;;;16.30;7.57;;;4.60;99.90;;;;;;5111037;28;20030;-80
2022/12/08 11:35:50;;;;;;;16.80;7.53;;;4.70;99.90;;;;;;5115349;28;20032;-83
2022/12/08 11:38:22;;;;;;;16.63;8.00;;;4.70;99.90;;;;;;5110774;27;20024;-78
2022/12/08 11:40:54;;;;;;;15.77;7.50;;;4.80;99.90;;;;;;5113802;28;20373;-76
2022/12/08 11:43:34;;;;;;;16.33;7.22;;;4.80;99.90;;;;;;5113310;28;20096;-78
2022/12/08 11:46:13;;;;;;;15.77;7.00;;;4.80;99.90;;;;;;5110072;28;20026;-77
2022/12/08 11:49:24;;;;;;;15.07;7.53;;;4.80;99.90;;;;;;5103636;28;20528;-77
2022/12/08 11:52:00;;;;;;;16.23;7.43;;;4.80;99.90;;;;;;5104416;28;20091;-79
2022/12/08 11:54:30;;;;;;;16.47;7.30;;;4.80;99.90;;;;;;5101281;28;20024;-75
2022/12/08 11:56:57;;;;;;;17.93;8.50;;;4.90;99.90;;;;;;5106993;28;20107;-76
2022/12/08 11:59:32;;;;;;;18.73;8.50;;;4.90;99.90;;;;;;5113113;28;20031;-76
2022/12/08 12:02:00;;;;;;;16.93;8.13;;;4.90;99.90;;;;;;5103588;28;20464;-76
2022/12/08 12:04:33;;;;;;;16.70;8.27;;;4.90;99.90;;;;;;5108265;28;20035;-74
2022/12/08 12:07:20;;;;;;;17.67;7.57;;;4.90;99.90;;;;;;5108495;28;20101;-75
2022/12/08 12:10:25;;;;;;;14.40;6.13;;;4.90;99.90;;;;;;5112878;28;20072;-75
2022/12/08 12:13:15;;;;;;;14.97;6.50;;;5.20;99.90;;;;;;5111039;28;20028;-78
2022/12/08 12:16:05;;;;;;;15.13;6.57;;;5.20;99.90;;;;;;5101596;28;20045;-76
2022/12/08 12:18:46;;;;;;;15.37;7.80;;;5.10;99.90;;;;;;5102556;28;20059;-81
2022/12/08 12:21:21;;;;;;;15.17;7.40;;;5.10;99.90;;;;;;5104351;28;20058;-85
2022/12/08 12:23:59;;;;;;;18.50;8.50;;;5.30;99.90;;;;;;5108727;28;20261;-85
2022/12/08 12:26:34;;;;;;;14.20;6.53;;;5.30;99.90;;;;;;5093843;28;20024;-84
2022/12/08 12:29:16;;;;;;;17.40;8.03;;;5.30;99.90;;;;;;5106472;28;20472;-85
2022/12/08 12:31:47;;;;;;;17.60;7.50;;;5.20;99.90;;;;;;5097332;28;20028;-85
2022/12/08 12:34:25;;;;;;;16.38;7.05;;;5.10;99.90;;;;;;5106410;28;20119;-86
2022/12/08 12:37:13;;;;;;;13.30;6.43;;;5.10;99.90;;;;;;5106902;28;20476;-85
2022/12/08 12:39:51;;;;;;;15.67;6.60;;;5.00;99.90;;;;;;5098360;28;20485;-86
2022/12/08 12:42:55;;;;;;;15.43;7.27;;;5.00;99.90;;;;;;5108308;28;20032;-85
2022/12/08 12:45:24;;;;;;;14.17;6.70;;;4.90;99.90;;;;;;5035649;28;20029;-86
2022/12/08 12:47:53;;;;;;;15.57;7.30;;;4.90;99.90;;;;;;5054776;28;20033;-84
2022/12/08 12:50:34;;;;;;;14.67;7.63;;;4.90;99.90;;;;;;5081701;28;20032;-86
2022/12/08 12:53:25;;;;;;;17.43;7.33;;;4.90;99.90;;;;;;5111345;28;20062;-84
2022/12/08 12:55:57;;;;;;;16.17;6.60;;;4.80;99.90;;;;;;5095270;28;20047;-85
2022/12/08 12:58:28;;;;;;;13.32;6.97;;;4.80;99.90;;;;;;5114554;28;20027;-86
2022/12/08 13:01:12;;;;;;;15.57;6.93;;;4.80;99.90;;;;;;5102286;28;20024;-85
2022/12/08 13:03:42;;;;;;;13.70;6.43;;;4.80;99.90;;;;;;5115171;28;20028;-84
2022/12/08 13:06:11;;;;;;;14.37;6.77;;;4.80;99.90;;;;;;5102403;28;20038;-86
2022/12/08 13:08:40;;;;;;;13.47;6.07;;;4.90;99.90;;;;;;5117687;28;20501;-86